KIWA

Phoenix-Mesa Gateway Airport

Phoenix, Arizona, USA
METAR KIWA 151747Z 00000KT 20SM SKC 18/M07 A3023
Observed Flight Rules
Dec-15 @ 17:47 UTC (2 hours ago) Visual Flight Rules
Wind Visibility Clouds
Calm 20 miles
  • Clear skies
Temperatures Readings
Current 18°C / 64°F
Dewpoint -7°C / 19°F
Humidity 18%
Altimeter 30.23" Hg
Pressure 1024 hPa
Elevation 412
METAR KIWA 151747Z 00000KT 20SM SKC 18/M07 A3023
Observed Flight Rules
Dec-15 @ 17:47 UTC
(2 hours ago)
VFR
Wind Visibility
Calm 20 miles
Clouds
  • Clear skies
Temperature Dewpoint
18°C / 64°F -7°C / 19°F
Humidity Altimeter Pressure
18% 30.23" Hg 1024 hPa